Time;durP1;ratioP1;P1;durP2;ratioP2;P2;SDS_P1;SDS_P2;PMS_P1;PMS_P2;Temp;Humidity;BMP_temperature;BMP_pressure;BME280_temperature;BME280_humidity;BME280_pressure;Samples;Min_cycle;Max_cycle;Signal;HPM_P1;HPM_P2
2022/09/07 00:00:44;;;;;;;3.92;1.90;;;20.70;99.90;;;;;;5052416;28;20021;-64
2022/09/07 00:03:09;;;;;;;7.18;2.00;;;20.90;99.90;;;;;;5052643;28;20098;-63
2022/09/07 00:05:46;;;;;;;5.65;2.00;;;21.00;99.90;;;;;;5051599;28;20029;-64
2022/09/07 00:08:13;;;;;;;4.05;1.95;;;21.00;99.90;;;;;;5052495;28;20028;-63
2022/09/07 00:10:39;;;;;;;5.78;2.00;;;20.90;99.90;;;;;;5052090;28;20029;-64
2022/09/07 00:13:06;;;;;;;3.25;2.08;;;20.90;99.90;;;;;;5052129;28;20363;-63
2022/09/07 00:15:32;;;;;;;4.22;1.90;;;20.60;99.90;;;;;;5052007;28;20037;-64
2022/09/07 00:17:58;;;;;;;6.22;2.10;;;20.80;99.90;;;;;;5052154;28;20013;-64
2022/09/07 00:20:24;;;;;;;8.07;2.00;;;20.90;99.90;;;;;;5051733;28;20041;-64
2022/09/07 00:22:50;;;;;;;6.38;2.30;;;20.90;99.90;;;;;;5052083;28;20025;-64
2022/09/07 00:25:16;;;;;;;5.50;2.10;;;20.90;99.90;;;;;;5052033;28;20063;-64
2022/09/07 00:27:41;;;;;;;2.80;1.92;;;20.60;99.90;;;;;;5052045;28;20017;-64
2022/09/07 00:30:08;;;;;;;4.13;1.70;;;20.70;99.90;;;;;;5051959;28;20493;-64
2022/09/07 00:32:33;;;;;;;4.60;2.33;;;20.80;99.90;;;;;;5051792;28;20017;-64
2022/09/07 00:34:59;;;;;;;5.22;2.20;;;20.80;99.90;;;;;;5051401;28;20116;-64
2022/09/07 00:37:25;;;;;;;5.70;2.13;;;20.80;99.90;;;;;;5051978;28;20104;-64
2022/09/07 00:39:51;;;;;;;5.05;2.10;;;20.80;99.90;;;;;;5051674;28;20079;-64
2022/09/07 00:42:19;;;;;;;6.05;2.67;;;20.60;99.90;;;;;;5051915;28;20024;-63
2022/09/07 00:45:14;;;;;;;5.32;2.10;;;20.60;99.90;;;;;;5051434;28;20033;-63
2022/09/07 00:47:56;;;;;;;6.53;2.20;;;20.80;99.90;;;;;;5052154;28;20053;-63
2022/09/07 00:50:27;;;;;;;3.60;2.05;;;20.90;99.90;;;;;;5051064;28;20029;-63
2022/09/07 00:53:09;;;;;;;4.53;2.40;;;20.90;99.90;;;;;;5053189;28;20493;-63
2022/09/07 00:55:36;;;;;;;5.20;2.20;;;20.80;99.90;;;;;;5055574;28;20056;-63
2022/09/07 00:58:03;;;;;;;4.70;2.35;;;20.80;99.90;;;;;;5055805;28;20029;-64
2022/09/07 01:00:30;;;;;;;7.97;2.28;;;20.80;99.90;;;;;;5055527;28;20108;-64
2022/09/07 01:02:58;;;;;;;7.40;2.33;;;20.80;99.90;;;;;;5055546;28;20036;-64
2022/09/07 01:05:30;;;;;;;4.57;2.22;;;20.90;99.90;;;;;;5055361;28;20048;-63
2022/09/07 01:07:57;;;;;;;5.32;2.47;;;20.70;99.90;;;;;;5055538;28;20036;-64
2022/09/07 01:10:25;;;;;;;4.40;1.95;;;20.80;99.90;;;;;;5055740;28;20032;-63
2022/09/07 01:12:51;;;;;;;3.88;2.53;;;20.80;99.90;;;;;;5055451;28;20021;-64
2022/09/07 01:15:19;;;;;;;5.95;2.33;;;20.80;99.90;;;;;;5055365;28;20029;-64
2022/09/07 01:17:53;;;;;;;5.00;2.20;;;20.70;99.90;;;;;;5055239;28;20049;-64
2022/09/07 01:20:27;;;;;;;5.20;2.08;;;20.50;99.90;;;;;;5054422;28;20042;-62
2022/09/07 01:23:02;;;;;;;6.93;2.13;;;20.40;99.90;;;;;;5054039;28;20079;-64
2022/09/07 01:25:56;;;;;;;7.38;2.55;;;20.30;99.90;;;;;;5054081;28;20024;-64
2022/09/07 01:28:29;;;;;;;3.80;2.08;;;20.70;99.90;;;;;;5052559;28;20028;-63
2022/09/07 01:31:11;;;;;;;6.45;2.10;;;20.80;99.90;;;;;;5053180;28;20033;-64
2022/09/07 01:33:55;;;;;;;3.92;1.95;;;20.80;99.90;;;;;;5053407;28;20155;-64
2022/09/07 01:36:39;;;;;;;4.00;2.28;;;20.80;99.90;;;;;;5053959;28;20052;-63
2022/09/07 01:39:05;;;;;;;4.30;2.10;;;20.70;99.90;;;;;;5053689;28;20060;-64
2022/09/07 01:42:07;;;;;;;4.75;2.03;;;20.70;99.90;;;;;;5053453;28;20060;-63
2022/09/07 01:44:46;;;;;;;4.90;2.38;;;20.70;99.90;;;;;;5053253;28;20029;-64
2022/09/07 01:47:17;;;;;;;4.72;2.15;;;20.70;99.90;;;;;;5053100;28;20039;-64
2022/09/07 01:50:01;;;;;;;6.97;2.30;;;20.70;99.90;;;;;;5053426;28;20055;-64
2022/09/07 01:52:35;;;;;;;4.60;1.85;;;20.70;99.90;;;;;;5053563;28;20045;-64
2022/09/07 01:55:04;;;;;;;4.45;2.30;;;20.60;99.90;;;;;;5053634;28;20041;-64
2022/09/07 01:57:37;;;;;;;4.18;2.30;;;20.60;99.90;;;;;;5053425;28;20392;-63
2022/09/07 02:00:03;;;;;;;4.47;2.17;;;20.60;99.90;;;;;;5053179;28;20033;-63
2022/09/07 02:02:34;;;;;;;5.57;2.35;;;20.60;99.90;;;;;;5052884;28;20112;-64
2022/09/07 02:05:07;;;;;;;4.70;2.22;;;20.60;99.90;;;;;;5052793;28;20017;-64
2022/09/07 02:07:41;;;;;;;4.35;2.10;;;20.60;99.90;;;;;;5053194;28;20100;-64
2022/09/07 02:10:19;;;;;;;4.22;1.88;;;20.60;99.90;;;;;;5053569;28;20053;-64
2022/09/07 02:12:52;;;;;;;4.57;1.90;;;20.50;99.90;;;;;;5053188;28;20021;-64
2022/09/07 02:15:37;;;;;;;6.10;2.17;;;20.50;99.90;;;;;;5052976;28;20494;-63
2022/09/07 02:18:05;;;;;;;4.93;1.90;;;20.60;99.90;;;;;;5052750;28;20044;-64
2022/09/07 02:20:35;;;;;;;4.20;2.00;;;20.60;99.90;;;;;;5008790;28;1270711;-64
2022/09/07 02:23:07;;;;;;;3.55;2.10;;;20.50;99.90;;;;;;5054175;28;20400;-64
2022/09/07 02:25:39;;;;;;;4.25;1.90;;;20.50;99.90;;;;;;5054038;28;20496;-64
2022/09/07 02:28:12;;;;;;;5.93;2.13;;;20.50;99.90;;;;;;5054441;28;20041;-64
2022/09/07 02:30:37;;;;;;;6.32;2.20;;;20.60;99.90;;;;;;5053501;28;20021;-64
2022/09/07 02:33:07;;;;;;;5.40;2.00;;;20.60;99.90;;;;;;5054009;28;20519;-64
2022/09/07 02:35:33;;;;;;;7.45;2.08;;;20.60;99.90;;;;;;5053866;28;20040;-64
2022/09/07 02:38:02;;;;;;;6.47;2.10;;;20.50;99.90;;;;;;5053868;28;20025;-64
2022/09/07 02:40:28;;;;;;;7.18;2.20;;;20.50;99.90;;;;;;5053660;28;20025;-65
2022/09/07 02:42:56;;;;;;;6.13;2.30;;;20.50;99.90;;;;;;5054086;28;20536;-64
2022/09/07 02:45:21;;;;;;;5.55;2.00;;;20.50;99.90;;;;;;5053405;28;20036;-64
2022/09/07 02:47:56;;;;;;;5.20;2.10;;;20.50;99.90;;;;;;5053637;28;20029;-63
2022/09/07 02:50:47;;;;;;;3.45;2.00;;;20.50;99.90;;;;;;5053896;28;20033;-64
2022/09/07 02:53:31;;;;;;;5.07;2.10;;;20.50;99.90;;;;;;5050548;28;20036;-64
2022/09/07 02:56:05;;;;;;;5.43;2.20;;;20.50;99.90;;;;;;5053872;28;20037;-64
2022/09/07 02:58:39;;;;;;;5.88;2.13;;;20.50;99.90;;;;;;5053500;28;20389;-64
2022/09/07 03:01:14;;;;;;;4.90;2.25;;;20.50;99.90;;;;;;5053210;28;20071;-63
2022/09/07 03:03:43;;;;;;;4.90;2.15;;;20.50;99.90;;;;;;5052493;28;20389;-64
2022/09/07 03:06:37;;;;;;;3.83;2.05;;;20.50;99.90;;;;;;5053191;28;20109;-63
2022/09/07 03:09:10;;;;;;;4.15;2.03;;;20.50;99.90;;;;;;5050183;28;20048;-64
2022/09/07 03:11:36;;;;;;;4.57;2.00;;;20.40;99.90;;;;;;5051801;28;20025;-64
2022/09/07 03:14:19;;;;;;;6.13;1.90;;;20.10;99.90;;;;;;5052750;28;20025;-63
2022/09/07 03:16:48;;;;;;;4.43;2.10;;;20.30;99.90;;;;;;5052528;28;20041;-63
2022/09/07 03:19:14;;;;;;;4.32;2.00;;;20.10;99.90;;;;;;5053238;28;20290;-64
2022/09/07 03:21:39;;;;;;;6.68;2.60;;;20.20;99.90;;;;;;5052755;28;20530;-63
2022/09/07 03:24:05;;;;;;;5.78;2.00;;;19.80;99.90;;;;;;5053291;28;20087;-63
2022/09/07 03:26:32;;;;;;;9.88;2.67;;;19.30;99.90;;;;;;5053122;28;20115;-63
2022/09/07 03:28:58;;;;;;;7.57;2.25;;;19.20;99.90;;;;;;5052755;28;20039;-63
2022/09/07 03:31:24;;;;;;;7.82;2.85;;;19.00;99.90;;;;;;5052283;28;20071;-63
2022/09/07 03:33:50;;;;;;;7.13;2.60;;;18.70;99.90;;;;;;5051914;28;20029;-63
2022/09/07 03:36:15;;;;;;;9.77;3.00;;;19.20;99.90;;;;;;5052721;28;20033;-63
2022/09/07 03:38:41;;;;;;;5.50;2.28;;;19.70;99.90;;;;;;5053104;28;20033;-63
2022/09/07 03:41:07;;;;;;;6.65;2.70;;;19.80;99.90;;;;;;5051990;28;20025;-63
2022/09/07 03:43:33;;;;;;;10.00;2.30;;;20.10;99.90;;;;;;5052427;28;20021;-64
2022/09/07 03:46:04;;;;;;;5.32;2.47;;;19.50;99.90;;;;;;5052521;28;20090;-63
2022/09/07 03:48:33;;;;;;;6.40;2.30;;;19.90;99.90;;;;;;5052411;28;20036;-64
2022/09/07 03:51:03;;;;;;;9.63;2.50;;;20.30;99.90;;;;;;5052356;28;20028;-64
2022/09/07 03:53:33;;;;;;;6.45;2.38;;;20.30;99.90;;;;;;5052438;28;20025;-64
2022/09/07 03:56:05;;;;;;;6.38;2.20;;;20.30;99.90;;;;;;5052685;28;20044;-63
2022/09/07 03:58:32;;;;;;;6.22;2.00;;;20.30;99.90;;;;;;5051859;28;20025;-63
2022/09/07 04:00:59;;;;;;;6.10;2.10;;;20.10;99.90;;;;;;5052306;28;20037;-63
2022/09/07 04:03:25;;;;;;;5.60;2.20;;;20.20;99.90;;;;;;5052301;28;20032;-63
2022/09/07 04:05:51;;;;;;;4.75;2.30;;;20.30;99.90;;;;;;5052000;28;20025;-63
2022/09/07 04:08:17;;;;;;;4.85;2.13;;;20.30;99.90;;;;;;5052474;28;20393;-64
2022/09/07 04:10:43;;;;;;;7.72;2.40;;;20.30;99.90;;;;;;5052144;28;20025;-64
2022/09/07 04:13:09;;;;;;;5.95;2.38;;;20.30;99.90;;;;;;5051884;28;20108;-64
2022/09/07 04:15:36;;;;;;;4.28;2.13;;;20.20;99.90;;;;;;5052088;28;20112;-64
2022/09/07 04:18:01;;;;;;;6.20;2.20;;;20.20;99.90;;;;;;5051909;28;20036;-63
2022/09/07 04:20:28;;;;;;;4.20;2.10;;;20.20;99.90;;;;;;5051807;28;20033;-64
2022/09/07 04:22:54;;;;;;;6.88;2.50;;;20.20;99.90;;;;;;5051960;28;20025;-63
2022/09/07 04:25:19;;;;;;;5.68;2.20;;;20.20;99.90;;;;;;5051902;28;20153;-64
2022/09/07 04:27:45;;;;;;;5.90;2.30;;;20.10;99.90;;;;;;5051317;28;20025;-64
2022/09/07 04:30:12;;;;;;;6.70;2.40;;;20.10;99.90;;;;;;5051725;28;20036;-64
2022/09/07 04:32:38;;;;;;;5.32;2.22;;;20.10;99.90;;;;;;5052079;28;20025;-64
2022/09/07 04:35:04;;;;;;;5.85;2.30;;;20.10;99.90;;;;;;5051767;28;20036;-64
2022/09/07 04:37:30;;;;;;;7.13;2.42;;;20.10;99.90;;;;;;5051614;28;20078;-64
2022/09/07 04:39:56;;;;;;;4.88;2.15;;;20.00;99.90;;;;;;5051591;28;20096;-63
2022/09/07 04:42:21;;;;;;;7.53;2.70;;;20.00;99.90;;;;;;5051553;28;20025;-64
2022/09/07 04:44:50;;;;;;;4.13;2.20;;;20.00;99.90;;;;;;5051886;28;20036;-64
2022/09/07 04:47:16;;;;;;;6.93;2.53;;;20.00;99.90;;;;;;5052164;28;20446;-64
2022/09/07 04:49:42;;;;;;;6.70;2.40;;;20.00;99.90;;;;;;5051707;28;20144;-64
2022/09/07 04:52:08;;;;;;;4.28;2.50;;;20.00;99.90;;;;;;5051693;28;20086;-64
2022/09/07 04:54:34;;;;;;;4.40;2.22;;;20.00;99.90;;;;;;5051547;28;20108;-64
2022/09/07 04:56:59;;;;;;;4.75;2.30;;;19.90;99.90;;;;;;5049902;28;20500;-65
2022/09/07 04:59:25;;;;;;;6.50;2.40;;;19.90;99.90;;;;;;5051738;28;20082;-64
2022/09/07 05:01:51;;;;;;;5.57;2.33;;;19.90;99.90;;;;;;5051467;28;20064;-64
2022/09/07 05:04:16;;;;;;;7.72;2.33;;;19.90;99.90;;;;;;5051526;28;20397;-64
2022/09/07 05:06:42;;;;;;;6.57;2.75;;;19.90;99.90;;;;;;5051524;28;20032;-64
2022/09/07 05:09:09;;;;;;;6.88;2.47;;;19.90;99.90;;;;;;5051827;28;20044;-64
2022/09/07 05:11:35;;;;;;;10.13;2.60;;;19.80;99.90;;;;;;5051113;28;20386;-64
2022/09/07 05:14:02;;;;;;;7.68;2.72;;;19.80;99.90;;;;;;5051377;28;20029;-64
2022/09/07 05:16:29;;;;;;;7.70;2.63;;;19.80;99.90;;;;;;5051370;28;20073;-64
2022/09/07 05:18:58;;;;;;;8.07;2.60;;;19.80;99.90;;;;;;5051784;28;20024;-63
2022/09/07 05:21:26;;;;;;;7.38;2.55;;;19.70;99.90;;;;;;5051561;28;20060;-63
2022/09/07 05:23:54;;;;;;;5.78;2.50;;;19.70;99.90;;;;;;5051259;28;20053;-64
2022/09/07 05:26:22;;;;;;;10.55;2.60;;;19.70;99.90;;;;;;5050891;28;20021;-64
2022/09/07 05:28:48;;;;;;;7.18;2.35;;;19.60;99.90;;;;;;5051461;28;20479;-63
2022/09/07 05:31:17;;;;;;;8.93;2.53;;;19.60;99.90;;;;;;5051231;28;20389;-63
2022/09/07 05:33:51;;;;;;;7.80;2.90;;;19.60;99.90;;;;;;5051663;28;20017;-63
2022/09/07 05:36:16;;;;;;;;;;;19.60;99.90;;;;;;5051586;28;20037;-63
2022/09/07 05:38:42;;;;;;;7.47;2.40;;;19.60;99.90;;;;;;5052606;28;20438;-61
2022/09/07 05:41:16;;;;;;;8.63;2.58;;;19.60;99.90;;;;;;5054597;28;20394;-63
2022/09/07 05:43:43;;;;;;;5.63;2.45;;;19.60;99.90;;;;;;5054682;28;20098;-63
2022/09/07 05:46:09;;;;;;;10.65;2.67;;;19.60;99.90;;;;;;5055090;28;20025;-64
2022/09/07 05:48:35;;;;;;;9.23;3.05;;;19.60;99.90;;;;;;5054502;28;20021;-63
2022/09/07 05:51:01;;;;;;;10.07;2.80;;;19.60;99.90;;;;;;5052872;28;20036;-62
2022/09/07 05:53:26;;;;;;;5.35;2.53;;;19.60;99.90;;;;;;5054198;28;20017;-64
2022/09/07 05:55:56;;;;;;;8.38;2.60;;;19.60;99.90;;;;;;5054652;28;20528;-62
2022/09/07 05:58:21;;;;;;;5.90;2.80;;;19.60;99.90;;;;;;5054607;28;20071;-63
2022/09/07 06:00:47;;;;;;;6.75;2.60;;;19.60;99.90;;;;;;5054465;28;20037;-64
2022/09/07 06:03:13;;;;;;;7.82;2.53;;;19.50;99.90;;;;;;5054351;28;20029;-63
2022/09/07 06:05:39;;;;;;;5.95;2.50;;;19.50;99.90;;;;;;5054429;28;20055;-63
2022/09/07 06:08:05;;;;;;;7.82;2.97;;;19.50;99.90;;;;;;5053895;28;20032;-63
2022/09/07 06:10:35;;;;;;;15.85;2.95;;;19.50;99.90;;;;;;5054257;28;20063;-62
2022/09/07 06:13:01;;;;;;;11.73;2.90;;;19.60;99.90;;;;;;5054702;28;20452;-63
2022/09/07 06:15:27;;;;;;;12.98;2.85;;;19.70;99.90;;;;;;5054041;28;20033;-63
2022/09/07 06:17:53;;;;;;;12.73;2.80;;;19.60;99.90;;;;;;5054204;28;20021;-63
2022/09/07 06:20:19;;;;;;;7.13;2.50;;;19.50;99.90;;;;;;5053921;28;20041;-63
2022/09/07 06:22:45;;;;;;;9.55;2.72;;;19.50;99.90;;;;;;5053901;28;20014;-63
2022/09/07 06:25:10;;;;;;;9.68;2.70;;;19.50;99.90;;;;;;5054460;28;20037;-63
2022/09/07 06:27:36;;;;;;;7.53;3.08;;;19.40;99.90;;;;;;5054008;28;20021;-63
2022/09/07 06:30:03;;;;;;;8.27;2.88;;;19.40;99.90;;;;;;5054053;28;20508;-64
2022/09/07 06:32:28;;;;;;;11.70;2.90;;;19.40;99.90;;;;;;5053617;28;20025;-62
2022/09/07 06:34:54;;;;;;;9.73;3.30;;;19.40;99.90;;;;;;5053656;28;20069;-62
2022/09/07 06:37:20;;;;;;;10.75;3.17;;;19.40;99.90;;;;;;5053428;28;20017;-61
2022/09/07 06:39:48;;;;;;;8.32;3.40;;;19.40;99.90;;;;;;5053625;28;20032;-63
2022/09/07 06:42:13;;;;;;;7.78;2.80;;;19.50;99.90;;;;;;5053937;28;20099;-63
2022/09/07 06:44:39;;;;;;;6.05;2.60;;;19.50;99.90;;;;;;5052298;28;20497;-61
2022/09/07 06:47:05;;;;;;;8.40;2.80;;;19.50;99.90;;;;;;5053491;28;20116;-62
2022/09/07 06:49:31;;;;;;;10.05;3.20;;;19.50;99.90;;;;;;5052928;28;20025;-63
2022/09/07 06:51:56;;;;;;;11.35;2.65;;;19.60;99.90;;;;;;5052584;28;20111;-61
2022/09/07 06:54:22;;;;;;;7.75;2.72;;;19.80;99.90;;;;;;5053251;28;20103;-63
2022/09/07 06:56:48;;;;;;;11.20;3.30;;;19.80;99.90;;;;;;5052413;28;20053;-62
2022/09/07 06:59:14;;;;;;;8.10;2.88;;;19.60;99.90;;;;;;5053662;28;20025;-63
2022/09/07 07:01:39;;;;;;;13.75;3.97;;;19.60;99.90;;;;;;5053474;28;20025;-63
2022/09/07 07:04:05;;;;;;;7.25;3.10;;;19.50;99.90;;;;;;5053477;28;20044;-62
2022/09/07 07:06:35;;;;;;;7.57;3.20;;;19.60;99.90;;;;;;5052826;28;20460;-62
2022/09/07 07:09:06;;;;;;;11.00;3.20;;;19.70;99.90;;;;;;5053215;28;20028;-62
2022/09/07 07:11:32;;;;;;;13.20;3.53;;;19.90;99.90;;;;;;5053439;28;20033;-63
2022/09/07 07:13:58;;;;;;;15.10;3.67;;;20.10;99.90;;;;;;5053081;28;20390;-62
2022/09/07 07:16:24;;;;;;;10.05;3.08;;;22.60;99.90;;;;;;5052917;28;20048;-63
2022/09/07 07:18:54;;;;;;;11.70;3.67;;;23.00;99.90;;;;;;5053383;28;20558;-63
2022/09/07 07:21:20;;;;;;;12.48;3.50;;;21.30;99.90;;;;;;5052303;28;20052;-63
2022/09/07 07:23:50;;;;;;;13.30;3.42;;;20.60;99.90;;;;;;5052941;28;20059;-61
2022/09/07 07:26:18;;;;;;;8.13;3.17;;;20.40;99.90;;;;;;5052592;28;20032;-63
2022/09/07 07:28:46;;;;;;;11.98;3.45;;;20.40;99.90;;;;;;5053281;28;20021;-61
2022/09/07 07:31:13;;;;;;;11.18;4.03;;;20.30;99.90;;;;;;5052448;28;20037;-63
2022/09/07 07:33:39;;;;;;;12.80;3.70;;;20.40;99.90;;;;;;5052945;28;20146;-63
2022/09/07 07:36:13;;;;;;;9.82;3.08;;;20.40;99.90;;;;;;5050673;28;20185;-63
2022/09/07 07:38:40;;;;;;;10.55;3.60;;;21.60;99.90;;;;;;5051868;28;20021;-62
2022/09/07 07:41:06;;;;;;;11.93;3.35;;;21.90;99.90;;;;;;5052442;28;20139;-63
2022/09/07 07:43:32;;;;;;;8.30;3.10;;;20.90;99.90;;;;;;5052263;28;20112;-62
2022/09/07 07:45:59;;;;;;;8.63;3.33;;;21.40;99.90;;;;;;5052405;28;20098;-63
2022/09/07 07:48:28;;;;;;;12.48;3.45;;;22.20;99.90;;;;;;5052531;28;20017;-63
2022/09/07 07:51:11;;;;;;;10.45;3.40;;;23.40;99.90;;;;;;5051662;28;20112;-61
2022/09/07 07:53:39;;;;;;;10.20;3.65;;;25.60;99.60;;;;;;5052459;28;20029;-61
2022/09/07 07:56:06;;;;;;;8.90;3.20;;;26.70;97.10;;;;;;5052457;28;20094;-62
2022/09/07 07:58:33;;;;;;;8.90;2.92;;;27.10;96.40;;;;;;5052333;28;20025;-63
2022/09/07 08:01:13;;;;;;;13.57;3.28;;;26.70;96.20;;;;;;5051978;28;20104;-63
2022/09/07 08:03:41;;;;;;;6.05;2.90;;;27.70;95.60;;;;;;5050500;28;20032;-63
2022/09/07 08:06:12;;;;;;;6.68;2.67;;;27.10;95.30;;;;;;5051856;28;20482;-63
2022/09/07 08:08:38;;;;;;;8.50;3.00;;;28.80;94.70;;;;;;5051984;28;20031;-63
2022/09/07 08:11:10;;;;;;;10.55;3.00;;;29.00;93.50;;;;;;5052410;28;20029;-63
2022/09/07 08:13:41;;;;;;;9.10;3.03;;;30.20;92.40;;;;;;5052140;28;20108;-64
2022/09/07 08:16:08;;;;;;;8.80;2.60;;;29.40;92.30;;;;;;5051972;28;20061;-64
2022/09/07 08:18:35;;;;;;;7.72;2.35;;;29.90;92.20;;;;;;5051650;28;20032;-64
2022/09/07 08:21:02;;;;;;;10.23;2.95;;;33.00;90.60;;;;;;5052364;28;20049;-64
2022/09/07 08:23:30;;;;;;;7.97;2.60;;;30.70;91.30;;;;;;5052227;28;20048;-64
2022/09/07 08:25:59;;;;;;;6.45;2.40;;;29.50;91.50;;;;;;5052097;28;20040;-64
2022/09/07 08:28:27;;;;;;;6.50;2.58;;;30.20;91.10;;;;;;5051983;28;20029;-62
2022/09/07 08:30:54;;;;;;;6.90;2.33;;;31.50;90.40;;;;;;5051977;28;20043;-65
2022/09/07 08:33:20;;;;;;;5.50;2.20;;;32.60;87.80;;;;;;5052053;28;20033;-63
2022/09/07 08:36:01;;;;;;;6.00;2.10;;;33.50;86.60;;;;;;5051845;28;20033;-64
2022/09/07 08:38:31;;;;;;;5.22;2.10;;;31.30;88.70;;;;;;5052123;28;20576;-65
2022/09/07 08:40:58;;;;;;;7.65;2.35;;;29.20;91.50;;;;;;5051605;28;20390;-64
2022/09/07 08:43:32;;;;;;;8.13;2.20;;;29.90;91.60;;;;;;5051630;28;20021;-64
2022/09/07 08:46:30;;;;;;;6.90;2.25;;;30.20;90.90;;;;;;5051889;28;20032;-64
2022/09/07 08:48:58;;;;;;;5.85;1.92;;;30.90;90.60;;;;;;5051294;28;20513;-64
2022/09/07 08:51:42;;;;;;;5.85;2.20;;;30.30;90.40;;;;;;5051849;28;20104;-65
2022/09/07 08:54:12;;;;;;;8.13;2.40;;;30.10;90.80;;;;;;5051915;28;20025;-65
2022/09/07 08:56:44;;;;;;;7.38;2.20;;;30.60;91.00;;;;;;5051460;28;20040;-65
2022/09/07 08:59:48;;;;;;;8.23;2.35;;;30.90;90.80;;;;;;5051873;28;20021;-65
2022/09/07 09:02:15;;;;;;;;;;;29.30;92.00;;;;;;5051846;28;20045;-65
2022/09/07 09:04:44;;;;;;;6.20;2.00;;;28.90;91.80;;;;;;5051784;28;20301;-65
2022/09/07 09:07:13;;;;;;;7.22;2.08;;;29.20;92.40;;;;;;5051760;28;20032;-65
2022/09/07 09:10:03;;;;;;;4.85;2.00;;;29.20;92.10;;;;;;5051944;28;20148;-65
2022/09/07 09:12:36;;;;;;;6.13;2.10;;;29.90;91.50;;;;;;5051635;28;20025;-65
2022/09/07 09:15:08;;;;;;;;;;;31.30;90.80;;;;;;5055791;28;20033;-64
2022/09/07 09:17:44;;;;;;;5.88;2.03;;;30.40;90.20;;;;;;5055313;28;19905;-65
2022/09/07 09:20:31;;;;;;;6.57;2.00;;;29.40;90.70;;;;;;5055323;28;20049;-64
2022/09/07 09:23:01;;;;;;;6.18;1.80;;;29.00;91.80;;;;;;5055836;28;20021;-64
2022/09/07 09:25:32;;;;;;;5.50;1.90;;;29.00;91.60;;;;;;5055468;28;20030;-65
2022/09/07 09:27:59;;;;;;;5.13;1.67;;;29.40;90.40;;;;;;5055388;28;20025;-64
2022/09/07 09:30:25;;;;;;;6.78;2.25;;;30.20;90.50;;;;;;5055080;28;20033;-64
2022/09/07 09:33:15;;;;;;;7.18;1.70;;;31.40;88.10;;;;;;5055243;28;20054;-65
2022/09/07 09:35:41;;;;;;;3.75;1.80;;;30.30;87.90;;;;;;5055404;28;20028;-64
2022/09/07 09:38:39;;;;;;;6.95;2.10;;;30.30;87.60;;;;;;5055118;28;20032;-65
2022/09/07 09:41:08;;;;;;;8.07;2.05;;;30.40;88.70;;;;;;5032739;28;20037;-64
2022/09/07 09:43:45;;;;;;;13.57;2.80;;;29.90;89.00;;;;;;5033050;28;20034;-65
2022/09/07 09:46:19;;;;;;;6.65;2.13;;;29.90;88.50;;;;;;5032890;28;20061;-66
2022/09/07 09:48:52;;;;;;;6.38;2.05;;;29.70;88.60;;;;;;5032460;28;20112;-65
2022/09/07 09:51:19;;;;;;;6.47;2.15;;;28.90;90.50;;;;;;5032545;28;20594;-66
2022/09/07 09:54:06;;;;;;;9.70;2.28;;;29.00;90.00;;;;;;5032154;28;20061;-66
2022/09/07 09:56:43;;;;;;;7.72;1.95;;;29.80;89.60;;;;;;5031564;28;20050;-66
2022/09/07 09:59:15;;;;;;;6.60;1.70;;;28.90;90.20;;;;;;5032995;28;20029;-66
2022/09/07 10:01:41;;;;;;;8.23;2.10;;;27.50;91.30;;;;;;5032364;28;20029;-65
2022/09/07 10:04:33;;;;;;;5.32;1.80;;;27.30;92.00;;;;;;5032655;28;20042;-65
2022/09/07 10:06:59;;;;;;;8.55;2.15;;;27.10;92.40;;;;;;5032525;28;20041;-65
2022/09/07 10:09:36;;;;;;;6.22;1.70;;;27.60;91.70;;;;;;5032407;28;20517;-65
2022/09/07 10:12:04;;;;;;;5.97;1.67;;;28.40;90.60;;;;;;5032596;28;20027;-65
2022/09/07 10:14:41;;;;;;;6.15;1.85;;;27.90;91.00;;;;;;5031958;28;20414;-65
2022/09/07 10:17:34;;;;;;;5.43;1.80;;;28.80;90.30;;;;;;5047784;28;20517;-65
2022/09/07 10:20:14;;;;;;;5.80;2.30;;;29.20;89.10;;;;;;5054289;28;20024;-65
2022/09/07 10:22:43;;;;;;;5.65;1.88;;;28.80;90.10;;;;;;5053989;28;20068;-65
2022/09/07 10:25:38;;;;;;;4.90;2.00;;;27.40;91.60;;;;;;5054202;28;20375;-64
2022/09/07 10:28:11;;;;;;;7.88;2.20;;;29.70;89.30;;;;;;5054607;28;20017;-65
2022/09/07 10:31:03;;;;;;;7.90;1.92;;;28.70;90.40;;;;;;5053759;28;20036;-65
2022/09/07 10:34:01;;;;;;;4.82;1.88;;;27.80;91.00;;;;;;5053816;28;20037;-65
2022/09/07 10:36:39;;;;;;;5.45;1.90;;;29.20;90.00;;;;;;5054020;28;20513;-65
2022/09/07 10:39:29;;;;;;;6.30;2.00;;;29.90;88.00;;;;;;5053869;28;20025;-64
2022/09/07 10:42:24;;;;;;;5.28;1.92;;;29.30;86.90;;;;;;5053968;28;20478;-65
2022/09/07 10:45:02;;;;;;;4.63;1.70;;;30.20;86.90;;;;;;5053689;28;20436;-65
2022/09/07 10:47:45;;;;;;;4.55;1.80;;;30.70;86.10;;;;;;5054079;28;20107;-65
2022/09/07 10:50:38;;;;;;;4.15;1.92;;;29.60;87.80;;;;;;5053679;28;20057;-67
2022/09/07 10:53:33;;;;;;;6.35;2.00;;;29.70;87.50;;;;;;5053682;28;20060;-65
2022/09/07 10:56:23;;;;;;;5.93;1.88;;;29.90;86.40;;;;;;5011716;28;20046;-65
2022/09/07 10:59:28;;;;;;;5.13;1.77;;;29.30;87.80;;;;;;5011443;28;20042;-63
2022/09/07 11:01:58;;;;;;;4.65;1.90;;;29.90;85.20;;;;;;4992024;28;20039;-64
2022/09/07 11:04:36;;;;;;;5.07;1.60;;;28.10;88.80;;;;;;4991711;28;20514;-63
2022/09/07 11:07:38;;;;;;;5.75;1.88;;;27.30;90.60;;;;;;4992211;28;20121;-63
2022/09/07 11:10:20;;;;;;;4.93;1.65;;;27.80;90.00;;;;;;4934140;29;20549;-65
2022/09/07 11:12:48;;;;;;;5.20;1.73;;;28.00;90.10;;;;;;4933678;29;20489;-65
2022/09/07 11:15:24;;;;;;;4.18;1.60;;;27.20;90.90;;;;;;4933295;29;20179;-65
2022/09/07 11:17:59;;;;;;;4.50;1.60;;;27.90;89.50;;;;;;4933878;29;20027;-63
2022/09/07 11:20:45;;;;;;;4.15;1.60;;;29.30;86.70;;;;;;4933777;29;20044;-63
2022/09/07 11:23:17;;;;;;;4.50;1.80;;;29.50;84.60;;;;;;4934308;29;20277;-65
2022/09/07 11:26:02;;;;;;;5.18;1.70;;;28.40;86.10;;;;;;4933657;28;20047;-64
2022/09/07 11:28:42;;;;;;;8.55;1.90;;;29.30;85.70;;;;;;4933045;29;20071;-65
2022/09/07 11:31:22;;;;;;;5.38;1.80;;;28.90;86.20;;;;;;4933912;28;20039;-64
2022/09/07 11:33:59;;;;;;;3.53;1.48;;;28.80;84.50;;;;;;4949216;29;20042;-64
2022/09/07 11:36:31;;;;;;;4.05;1.65;;;28.40;85.50;;;;;;4952068;28;20436;-64
2022/09/07 11:39:03;;;;;;;6.45;1.70;;;26.70;90.10;;;;;;4998113;28;20025;-65
2022/09/07 11:42:03;;;;;;;5.93;1.80;;;26.70;90.40;;;;;;5010490;28;20034;-63
2022/09/07 11:44:52;;;;;;;5.25;1.55;;;28.10;87.10;;;;;;4971739;28;20411;-63
2022/09/07 11:47:36;;;;;;;5.45;1.70;;;27.80;87.50;;;;;;5006694;28;20044;-64
2022/09/07 11:50:02;;;;;;;3.03;1.63;;;28.80;86.30;;;;;;5030578;28;20029;-64
2022/09/07 11:52:42;;;;;;;4.20;1.70;;;28.70;86.00;;;;;;5030584;28;20159;-64
2022/09/07 11:55:19;;;;;;;4.90;1.85;;;28.80;86.00;;;;;;5030298;28;20037;-63
2022/09/07 11:58:06;;;;;;;4.20;1.50;;;28.70;86.60;;;;;;5030041;28;20030;-64
2022/09/07 12:01:00;;;;;;;4.07;1.50;;;28.00;87.30;;;;;;5030197;28;20038;-64
2022/09/07 12:03:43;;;;;;;6.00;1.67;;;27.80;88.50;;;;;;5030381;28;20034;-64
2022/09/07 12:06:27;;;;;;;5.40;1.63;;;27.50;90.00;;;;;;5030676;28;20083;-64
2022/09/07 12:08:59;;;;;;;5.80;1.70;;;28.40;87.90;;;;;;5030543;28;20124;-64
2022/09/07 12:11:39;;;;;;;4.15;1.55;;;28.40;87.70;;;;;;5029958;28;20022;-63
2022/09/07 12:14:40;;;;;;;3.05;1.55;;;27.70;88.70;;;;;;5013715;28;20532;-64
2022/09/07 12:17:21;;;;;;;4.05;1.60;;;27.50;88.90;;;;;;4990676;28;20082;-64
2022/09/07 12:20:09;;;;;;;4.03;1.35;;;26.80;90.50;;;;;;5005124;28;20180;-64
2022/09/07 12:22:36;;;;;;;3.80;1.60;;;26.70;90.40;;;;;;5029946;28;20061;-64
2022/09/07 12:25:09;;;;;;;6.85;2.10;;;26.10;91.60;;;;;;5030030;28;20030;-64
2022/09/07 12:27:37;;;;;;;3.33;1.77;;;25.60;92.90;;;;;;5030007;28;20056;-64
2022/09/07 12:30:03;;;;;;;4.88;1.85;;;25.60;93.30;;;;;;5030033;28;20629;-63
2022/09/07 12:32:46;;;;;;;7.13;2.10;;;25.30;93.80;;;;;;5029811;28;20040;-63
2022/09/07 12:35:27;;;;;;;9.95;2.40;;;25.30;95.40;;;;;;5030291;28;20379;-63
2022/09/07 12:38:01;;;;;;;6.32;2.20;;;25.20;96.10;;;;;;5029799;28;20044;-64
2022/09/07 12:40:31;;;;;;;5.95;1.80;;;25.00;96.60;;;;;;5029264;28;20494;-63
2022/09/07 12:43:11;;;;;;;7.43;2.15;;;24.80;97.40;;;;;;5029814;28;20030;-64
2022/09/07 12:45:37;;;;;;;6.28;2.08;;;25.10;97.80;;;;;;5029772;28;20414;-63
2022/09/07 12:48:15;;;;;;;7.57;2.47;;;25.00;97.30;;;;;;5031840;28;20041;-64
2022/09/07 12:51:01;;;;;;;4.47;1.70;;;25.20;97.60;;;;;;5033851;28;20022;-64
2022/09/07 12:53:36;;;;;;;6.53;2.00;;;24.90;97.70;;;;;;5045454;28;20068;-63
2022/09/07 12:56:08;;;;;;;6.60;2.33;;;24.60;98.50;;;;;;5055612;28;20033;-64
2022/09/07 12:58:50;;;;;;;6.10;1.98;;;24.60;98.80;;;;;;5055862;28;20391;-64
2022/09/07 13:01:29;;;;;;;6.03;2.05;;;24.50;99.50;;;;;;5055881;28;20409;-64
2022/09/07 13:04:21;;;;;;;6.80;2.17;;;24.30;99.90;;;;;;5055852;28;20111;-63
2022/09/07 13:06:50;;;;;;;5.57;2.10;;;24.40;99.90;;;;;;5051887;28;20100;-65
2022/09/07 13:09:18;;;;;;;10.88;2.50;;;24.70;99.50;;;;;;5025707;28;20033;-65
2022/09/07 13:11:44;;;;;;;14.10;2.47;;;24.50;99.90;;;;;;5024281;28;20032;-65